UAL55 LFPG-KEWR
Flight info
| Callsign | UAL55 |
|---|---|
| Flight time | N/A |
| Altitude | 34000 |
| Route | OPALE DCT SUBIP UM8 WAFFU Y8 SAM M140 OXLOW DCT SLANY DCT ERABI DCT NEBIN/M081F350 DCT 5330N02000W 5330N03000W 53N040W 52N050W DCT TUDEP/N0469F360 N532A ANATI Q812 MAIRE DCT PBERG DCT HANAA FLOSI4 |
| Aircraft | B77W/H-SDE1E2E3FGHIJ2J3J4J5M1RWXY/LB1D1 |
Departure
| Time | N/A |
|---|---|
| Airport | Charles de Gaulle International Airport (LFPG) |
Arrival
| Time | 2026-05-04 02:12 |
|---|---|
| Airport | Newark Liberty International Airport (KEWR) |
| Time | Latitude | Longitude | Altitude | Speed | Heading |
|---|---|---|---|---|---|
| 2026-05-04 01:05 | 46.69613 | -71.40659 | 35795 ft | 455 kts | 222° |
| 2026-05-04 01:05 | 46.64912 | -71.46783 | 35793 ft | 455 kts | 223° |
| 2026-05-04 01:06 | 46.60216 | -71.52886 | 35791 ft | 455 kts | 223° |
| 2026-05-04 01:06 | 46.55462 | -71.59052 | 35791 ft | 456 kts | 223° |
| 2026-05-04 01:07 | 46.50761 | -71.65134 | 35788 ft | 456 kts | 222° |
| 2026-05-04 01:07 | 46.46032 | -71.71239 | 35790 ft | 456 kts | 222° |
| 2026-05-04 01:08 | 46.41270 | -71.77371 | 35789 ft | 456 kts | 222° |
| 2026-05-04 01:08 | 46.36994 | -71.84004 | 35787 ft | 456 kts | 232° |
| 2026-05-04 01:09 | 46.33064 | -71.91215 | 35780 ft | 455 kts | 232° |
| 2026-05-04 01:09 | 46.29143 | -71.98390 | 35776 ft | 457 kts | 232° |
| 2026-05-04 01:10 | 46.25212 | -72.05559 | 35776 ft | 456 kts | 232° |
| 2026-05-04 01:10 | 46.21247 | -72.12769 | 35779 ft | 456 kts | 232° |
| 2026-05-04 01:11 | 46.17319 | -72.19891 | 35775 ft | 457 kts | 232° |
| 2026-05-04 01:11 | 46.13359 | -72.27052 | 35783 ft | 457 kts | 232° |
| 2026-05-04 01:12 | 46.09375 | -72.34235 | 35786 ft | 457 kts | 232° |
| 2026-05-04 01:12 | 46.05414 | -72.41361 | 35778 ft | 458 kts | 232° |
| 2026-05-04 01:13 | 46.01453 | -72.48467 | 35781 ft | 457 kts | 232° |
| 2026-05-04 01:13 | 45.97474 | -72.55587 | 35779 ft | 457 kts | 232° |
| 2026-05-04 01:14 | 45.93854 | -72.63092 | 35782 ft | 455 kts | 238° |
| 2026-05-04 01:14 | 45.90405 | -72.70631 | 35785 ft | 455 kts | 237° |
| 2026-05-04 01:15 | 45.86894 | -72.78217 | 35793 ft | 454 kts | 237° |
| 2026-05-04 01:15 | 45.83382 | -72.85743 | 35802 ft | 456 kts | 237° |
| 2026-05-04 01:16 | 45.79881 | -72.93211 | 35809 ft | 455 kts | 237° |
| 2026-05-04 01:16 | 45.76334 | -73.00746 | 35813 ft | 455 kts | 237° |
| 2026-05-04 01:17 | 45.72505 | -73.07958 | 35807 ft | 457 kts | 226° |
| 2026-05-04 01:17 | 45.67316 | -73.13268 | 35798 ft | 461 kts | 207° |
| 2026-05-04 01:18 | 45.61243 | -73.16238 | 35802 ft | 465 kts | 198° |
| 2026-05-04 01:18 | 45.54993 | -73.18754 | 35799 ft | 464 kts | 198° |
| 2026-05-04 01:19 | 45.48805 | -73.21235 | 35803 ft | 465 kts | 198° |
| 2026-05-04 01:19 | 45.42550 | -73.23737 | 35800 ft | 464 kts | 198° |
| 2026-05-04 01:20 | 45.36412 | -73.26187 | 35804 ft | 465 kts | 198° |
| 2026-05-04 01:20 | 45.30164 | -73.28676 | 35808 ft | 464 kts | 198° |
| 2026-05-04 01:21 | 45.23936 | -73.31151 | 35811 ft | 464 kts | 198° |
| 2026-05-04 01:21 | 45.17693 | -73.33626 | 35813 ft | 465 kts | 198° |
| 2026-05-04 01:22 | 45.11434 | -73.36101 | 35814 ft | 465 kts | 198° |
| 2026-05-04 01:22 | 45.05212 | -73.38557 | 35814 ft | 465 kts | 198° |
| 2026-05-04 01:23 | 44.98935 | -73.41029 | 35823 ft | 465 kts | 198° |
| 2026-05-04 01:23 | 44.92734 | -73.43465 | 35825 ft | 464 kts | 198° |
| 2026-05-04 01:24 | 44.86525 | -73.45899 | 35831 ft | 464 kts | 198° |
| 2026-05-04 01:24 | 44.80263 | -73.48348 | 35825 ft | 464 kts | 198° |
| 2026-05-04 01:25 | 44.74042 | -73.50776 | 35839 ft | 464 kts | 198° |
| 2026-05-04 01:25 | 44.67694 | -73.52418 | 35834 ft | 469 kts | 186° |
| 2026-05-04 01:26 | 44.61146 | -73.52844 | 35841 ft | 469 kts | 185° |
| 2026-05-04 01:26 | 44.54587 | -73.53241 | 35844 ft | 470 kts | 186° |
| 2026-05-04 01:27 | 44.48000 | -73.53641 | 35841 ft | 470 kts | 186° |
| 2026-05-04 01:27 | 44.41462 | -73.54037 | 35844 ft | 469 kts | 186° |
| 2026-05-04 01:28 | 44.34898 | -73.54436 | 35845 ft | 469 kts | 186° |
| 2026-05-04 01:28 | 44.28341 | -73.54833 | 35846 ft | 470 kts | 186° |
| 2026-05-04 01:29 | 44.21773 | -73.55229 | 35853 ft | 471 kts | 186° |
| 2026-05-04 01:29 | 44.15229 | -73.55624 | 35845 ft | 470 kts | 186° |
| 2026-05-04 01:30 | 44.08661 | -73.56019 | 35848 ft | 470 kts | 186° |
| 2026-05-04 01:30 | 44.02064 | -73.56415 | 35843 ft | 471 kts | 186° |
| 2026-05-04 01:31 | 43.95495 | -73.56808 | 35844 ft | 471 kts | 186° |
| 2026-05-04 01:31 | 43.88908 | -73.57202 | 35849 ft | 470 kts | 186° |
| 2026-05-04 01:32 | 43.82348 | -73.57594 | 35855 ft | 470 kts | 186° |
| 2026-05-04 01:32 | 43.75809 | -73.57983 | 35860 ft | 470 kts | 186° |
| 2026-05-04 01:33 | 43.69240 | -73.58373 | 35865 ft | 470 kts | 186° |
| 2026-05-04 01:33 | 43.62658 | -73.58762 | 35868 ft | 471 kts | 186° |
| 2026-05-04 01:34 | 43.56079 | -73.59152 | 35870 ft | 471 kts | 186° |
| 2026-05-04 01:34 | 43.49495 | -73.59540 | 35872 ft | 471 kts | 187° |
| 2026-05-04 01:35 | 43.42911 | -73.59927 | 35878 ft | 471 kts | 187° |
| 2026-05-04 01:35 | 43.36348 | -73.60313 | 35881 ft | 470 kts | 187° |
| 2026-05-04 01:36 | 43.29765 | -73.60699 | 35881 ft | 470 kts | 187° |
| 2026-05-04 01:36 | 43.23205 | -73.61083 | 35886 ft | 471 kts | 187° |
| 2026-05-04 01:37 | 43.16758 | -73.62571 | 35886 ft | 462 kts | 201° |
| 2026-05-04 01:37 | 43.10606 | -73.65171 | 35884 ft | 462 kts | 201° |
| 2026-05-04 01:38 | 43.04415 | -73.67802 | 35892 ft | 464 kts | 201° |
| 2026-05-04 01:38 | 42.98226 | -73.70423 | 35905 ft | 462 kts | 201° |
| 2026-05-04 01:39 | 42.92018 | -73.73045 | 35907 ft | 463 kts | 201° |
| 2026-05-04 01:39 | 42.85848 | -73.75645 | 35905 ft | 461 kts | 201° |
| 2026-05-04 01:40 | 42.79679 | -73.78240 | 35914 ft | 462 kts | 201° |
| 2026-05-04 01:40 | 42.73489 | -73.80845 | 35909 ft | 461 kts | 202° |
| 2026-05-04 01:41 | 42.67403 | -73.83584 | 35913 ft | 461 kts | 203° |
| 2026-05-04 01:41 | 42.61274 | -73.86345 | 35914 ft | 460 kts | 203° |
| 2026-05-04 01:42 | 42.55150 | -73.89093 | 35911 ft | 460 kts | 203° |
| 2026-05-04 01:42 | 42.49126 | -73.91786 | 35909 ft | 460 kts | 203° |
| 2026-05-04 01:43 | 42.42979 | -73.94527 | 35900 ft | 459 kts | 203° |
| 2026-05-04 01:43 | 42.36897 | -73.97233 | 35906 ft | 459 kts | 203° |
| 2026-05-04 01:44 | 42.30768 | -73.99953 | 35905 ft | 458 kts | 203° |
| 2026-05-04 01:44 | 42.24651 | -74.02663 | 35910 ft | 459 kts | 203° |
| 2026-05-04 01:45 | 42.18583 | -74.05345 | 35663 ft | 454 kts | 203° |
| 2026-05-04 01:45 | 42.15553 | -74.06684 | 34984 ft | 459 kts | 203° |
| 2026-05-04 01:45 | 42.09421 | -74.09393 | 33406 ft | 474 kts | 203° |
| 2026-05-04 01:46 | 42.06255 | -74.10789 | 32661 ft | 483 kts | 204° |
| 2026-05-04 01:46 | 42.03013 | -74.12216 | 31821 ft | 493 kts | 204° |
| 2026-05-04 01:46 | 41.99759 | -74.13645 | 30916 ft | 501 kts | 204° |
| 2026-05-04 01:46 | 41.96417 | -74.15108 | 30030 ft | 500 kts | 204° |
| 2026-05-04 01:47 | 41.93093 | -74.16560 | 29399 ft | 494 kts | 204° |
| 2026-05-04 01:47 | 41.89831 | -74.17982 | 28827 ft | 488 kts | 204° |
| 2026-05-04 01:47 | 41.86610 | -74.19386 | 28254 ft | 482 kts | 204° |
| 2026-05-04 01:47 | 41.83450 | -74.20763 | 27698 ft | 475 kts | 204° |
| 2026-05-04 01:48 | 41.80283 | -74.22144 | 27122 ft | 469 kts | 204° |
| 2026-05-04 01:48 | 41.77182 | -74.23495 | 26552 ft | 464 kts | 204° |
| 2026-05-04 01:48 | 41.74162 | -74.24810 | 25997 ft | 458 kts | 204° |
| 2026-05-04 01:48 | 41.71124 | -74.26131 | 25507 ft | 451 kts | 204° |
| 2026-05-04 01:49 | 41.68142 | -74.27423 | 25307 ft | 437 kts | 204° |
| 2026-05-04 01:49 | 41.65265 | -74.28670 | 24943 ft | 428 kts | 204° |
| 2026-05-04 01:49 | 41.62425 | -74.29904 | 24326 ft | 426 kts | 204° |
| 2026-05-04 01:49 | 41.59625 | -74.31119 | 23660 ft | 424 kts | 204° |
| 2026-05-04 01:50 | 41.56793 | -74.32347 | 23050 ft | 421 kts | 204° |
| 2026-05-04 01:50 | 41.54001 | -74.33555 | 22472 ft | 417 kts | 204° |
| 2026-05-04 01:50 | 41.51268 | -74.34737 | 21914 ft | 413 kts | 204° |
| 2026-05-04 01:50 | 41.48512 | -74.35928 | 21293 ft | 411 kts | 204° |
| 2026-05-04 01:51 | 41.45810 | -74.37094 | 20727 ft | 408 kts | 204° |
| 2026-05-04 01:51 | 41.43129 | -74.38250 | 20146 ft | 405 kts | 204° |
| 2026-05-04 01:51 | 41.40432 | -74.39412 | 19589 ft | 402 kts | 204° |
| 2026-05-04 01:51 | 41.37805 | -74.40542 | 19035 ft | 398 kts | 204° |
| 2026-05-04 01:52 | 41.35140 | -74.41688 | 18517 ft | 394 kts | 204° |
| 2026-05-04 01:52 | 41.32556 | -74.42795 | 18378 ft | 380 kts | 204° |
| 2026-05-04 01:52 | 41.30107 | -74.43842 | 18351 ft | 363 kts | 204° |
| 2026-05-04 01:52 | 41.27737 | -74.44856 | 18329 ft | 348 kts | 204° |
| 2026-05-04 01:53 | 41.25467 | -74.45828 | 18322 ft | 332 kts | 205° |
| 2026-05-04 01:53 | 41.23328 | -74.46744 | 18275 ft | 319 kts | 205° |
| 2026-05-04 01:53 | 41.21212 | -74.47652 | 18000 ft | 313 kts | 205° |
| 2026-05-04 01:53 | 41.19132 | -74.48547 | 17552 ft | 314 kts | 205° |
| 2026-05-04 01:54 | 41.17057 | -74.49437 | 17125 ft | 314 kts | 205° |
| 2026-05-04 01:54 | 41.14972 | -74.50327 | 16755 ft | 311 kts | 205° |
| 2026-05-04 01:54 | 41.12914 | -74.51183 | 16373 ft | 312 kts | 200° |
| 2026-05-04 01:54 | 41.10695 | -74.51327 | 15905 ft | 324 kts | 175° |
| 2026-05-04 01:55 | 41.08575 | -74.50293 | 15411 ft | 334 kts | 150° |
| 2026-05-04 01:55 | 41.06879 | -74.48208 | 14995 ft | 334 kts | 124° |
| 2026-05-04 01:55 | 41.05685 | -74.45596 | 14664 ft | 330 kts | 118° |
| 2026-05-04 01:55 | 41.04579 | -74.42950 | 14339 ft | 327 kts | 118° |
| 2026-05-04 01:56 | 41.03473 | -74.40309 | 13971 ft | 327 kts | 118° |
| 2026-05-04 01:56 | 41.02375 | -74.37701 | 13781 ft | 318 kts | 118° |
| 2026-05-04 01:56 | 41.01323 | -74.35203 | 13768 ft | 304 kts | 118° |
| 2026-05-04 01:56 | 41.00444 | -74.32722 | 13703 ft | 288 kts | 100° |
| 2026-05-04 01:57 | 41.00313 | -74.30151 | 13372 ft | 278 kts | 80° |
| 2026-05-04 01:57 | 41.00505 | -74.27618 | 13036 ft | 277 kts | 78° |
| 2026-05-04 01:57 | 41.00719 | -74.25094 | 12712 ft | 276 kts | 78° |
| 2026-05-04 01:57 | 41.00933 | -74.22602 | 12396 ft | 275 kts | 78° |
| 2026-05-04 01:58 | 41.01149 | -74.20072 | 12085 ft | 274 kts | 78° |
| 2026-05-04 01:58 | 41.01364 | -74.17567 | 11795 ft | 273 kts | 77° |
| 2026-05-04 01:58 | 41.01572 | -74.15107 | 11507 ft | 271 kts | 78° |
| 2026-05-04 01:58 | 41.01780 | -74.12640 | 11203 ft | 270 kts | 78° |
| 2026-05-04 01:59 | 41.01709 | -74.10119 | 10855 ft | 278 kts | 103° |
| 2026-05-04 01:59 | 41.00824 | -74.07840 | 10483 ft | 281 kts | 126° |
| 2026-05-04 01:59 | 40.99657 | -74.05801 | 10193 ft | 280 kts | 127° |
| 2026-05-04 01:59 | 40.98490 | -74.03757 | 9894 ft | 278 kts | 120° |
| 2026-05-04 02:00 | 40.97857 | -74.01356 | 9523 ft | 271 kts | 88° |
| 2026-05-04 02:00 | 40.98121 | -73.98998 | 9150 ft | 257 kts | 58° |
| 2026-05-04 02:00 | 40.99153 | -73.97213 | 8795 ft | 238 kts | 26° |
| 2026-05-04 02:00 | 41.00608 | -73.96457 | 8421 ft | 219 kts | 355° |
| 2026-05-04 02:01 | 41.02028 | -73.96876 | 8053 ft | 206 kts | 323° |
| 2026-05-04 02:01 | 41.02942 | -73.98264 | 7684 ft | 203 kts | 291° |
| 2026-05-04 02:01 | 41.03064 | -74.00113 | 7383 ft | 206 kts | 264° |
| 2026-05-04 02:01 | 41.02493 | -74.01902 | 7063 ft | 216 kts | 239° |
| 2026-05-04 02:02 | 41.01318 | -74.03197 | 6729 ft | 230 kts | 211° |
| 2026-05-04 02:02 | 40.99761 | -74.03823 | 6465 ft | 234 kts | 201° |
| 2026-05-04 02:02 | 40.98188 | -74.04319 | 6203 ft | 233 kts | 200° |
| 2026-05-04 02:02 | 40.96604 | -74.04812 | 5956 ft | 231 kts | 200° |
| 2026-05-04 02:03 | 40.95039 | -74.05299 | 5703 ft | 230 kts | 200° |
| 2026-05-04 02:03 | 40.93473 | -74.05786 | 5424 ft | 230 kts | 200° |
| 2026-05-04 02:03 | 40.91924 | -74.06267 | 5177 ft | 229 kts | 200° |
| 2026-05-04 02:03 | 40.90366 | -74.06751 | 4930 ft | 227 kts | 200° |
| 2026-05-04 02:04 | 40.88848 | -74.07223 | 4685 ft | 226 kts | 200° |
| 2026-05-04 02:04 | 40.87324 | -74.07696 | 4432 ft | 225 kts | 200° |
| 2026-05-04 02:04 | 40.85817 | -74.08161 | 4341 ft | 215 kts | 200° |
| 2026-05-04 02:04 | 40.84400 | -74.08596 | 4328 ft | 201 kts | 200° |
| 2026-05-04 02:05 | 40.83081 | -74.09003 | 4205 ft | 193 kts | 201° |
| 2026-05-04 02:05 | 40.81757 | -74.09364 | 3984 ft | 195 kts | 189° |
| 2026-05-04 02:05 | 40.80387 | -74.09389 | 3702 ft | 192 kts | 200° |
| 2026-05-04 02:05 | 40.79294 | -74.10188 | 3391 ft | 175 kts | 238° |
| 2026-05-04 02:06 | 40.78924 | -74.11612 | 3064 ft | 166 kts | 277° |
| 2026-05-04 02:06 | 40.79417 | -74.12947 | 2743 ft | 169 kts | 316° |
| 2026-05-04 02:06 | 40.80545 | -74.13477 | 2440 ft | 181 kts | 357° |
| 2026-05-04 02:06 | 40.81752 | -74.12892 | 2185 ft | 191 kts | 26° |
| 2026-05-04 02:07 | 40.82881 | -74.11919 | 1996 ft | 194 kts | 32° |
| 2026-05-04 02:07 | 40.83695 | -74.10506 | 1799 ft | 199 kts | 71° |
| 2026-05-04 02:07 | 40.83690 | -74.08706 | 1675 ft | 197 kts | 114° |
| 2026-05-04 02:07 | 40.82826 | -74.07295 | 1769 ft | 195 kts | 154° |
| 2026-05-04 02:08 | 40.81572 | -74.06882 | 1953 ft | 187 kts | 185° |
| 2026-05-04 02:08 | 40.80327 | -74.07285 | 1966 ft | 178 kts | 221° |
| 2026-05-04 02:08 | 40.79561 | -74.08500 | 1980 ft | 171 kts | 240° |
| 2026-05-04 02:08 | 40.78900 | -74.09824 | 1975 ft | 169 kts | 240° |
| 2026-05-04 02:09 | 40.78146 | -74.11027 | 1797 ft | 172 kts | 218° |
| 2026-05-04 02:09 | 40.77024 | -74.11477 | 1567 ft | 162 kts | 200° |
| 2026-05-04 02:09 | 40.76115 | -74.12170 | 1375 ft | 142 kts | 222° |
| 2026-05-04 02:09 | 40.75231 | -74.12665 | 1194 ft | 135 kts | 206° |
| 2026-05-04 02:10 | 40.74361 | -74.13257 | 1022 ft | 143 kts | 211° |
| 2026-05-04 02:10 | 40.73439 | -74.13814 | 822 ft | 144 kts | 210° |
| 2026-05-04 02:10 | 40.72552 | -74.14391 | 636 ft | 136 kts | 208° |
| 2026-05-04 02:10 | 40.71708 | -74.14922 | 454 ft | 132 kts | 209° |
| 2026-05-04 02:11 | 40.70871 | -74.15454 | 256 ft | 130 kts | 208° |
| 2026-05-04 02:11 | 40.70036 | -74.15973 | 87 ft | 132 kts | 208° |
| 2026-05-04 02:11 | 40.69247 | -74.16497 | 22 ft | 113 kts | 207° |
| 2026-05-04 02:11 | 40.68697 | -74.16832 | 21 ft | 53 kts | 208° |
| 2026-05-04 02:12 | 40.68549 | -74.16982 | 21 ft | 17 kts | 229° |
| 2026-05-04 02:12 | 40.68498 | -74.17079 | 21 ft | 13 kts | 238° |
| 2026-05-04 02:12 | 40.68468 | -74.17139 | 21 ft | 4 kts | 236° |
| 2026-05-04 02:12 | 40.68447 | -74.17188 | 21 ft | 8 kts | 250° |
| 2026-05-04 02:13 | 40.68453 | -74.17258 | 21 ft | 8 kts | 291° |
| 2026-05-04 02:13 | 40.68482 | -74.17340 | 21 ft | 11 kts | 295° |
| 2026-05-04 02:13 | 40.68512 | -74.17423 | 21 ft | 6 kts | 296° |
| 2026-05-04 02:13 | 40.68553 | -74.17473 | 21 ft | 9 kts | 321° |
| 2026-05-04 02:14 | 40.68590 | -74.17525 | 21 ft | 5 kts | 329° |
| 2026-05-04 02:14 | 40.68646 | -74.17522 | 21 ft | 10 kts | 18° |
| 2026-05-04 02:14 | 40.68725 | -74.17474 | 21 ft | 14 kts | 26° |
| 2026-05-04 02:14 | 40.68800 | -74.17427 | 21 ft | 6 kts | 26° |
| 2026-05-04 02:15 | 40.68850 | -74.17395 | 21 ft | 9 kts | 26° |
| 2026-05-04 02:15 | 40.68925 | -74.17348 | 21 ft | 13 kts | 26° |
| 2026-05-04 02:15 | 40.69008 | -74.17295 | 21 ft | 14 kts | 26° |
| 2026-05-04 02:15 | 40.69105 | -74.17234 | 21 ft | 15 kts | 25° |
| 2026-05-04 02:16 | 40.69199 | -74.17175 | 21 ft | 14 kts | 26° |
| 2026-05-04 02:16 | 40.69290 | -74.17117 | 21 ft | 12 kts | 26° |
| 2026-05-04 02:16 | 40.69370 | -74.17080 | 21 ft | 12 kts | 9° |
| 2026-05-04 02:16 | 40.69455 | -74.17076 | 21 ft | 12 kts | 357° |
| 2026-05-04 02:17 | 40.69537 | -74.17091 | 21 ft | 11 kts | 347° |
| 2026-05-04 02:17 | 40.69617 | -74.17121 | 21 ft | 11 kts | 339° |
| 2026-05-04 02:17 | 40.69693 | -74.17171 | 21 ft | 12 kts | 328° |
| 2026-05-04 02:17 | 40.69772 | -74.17249 | 21 ft | 15 kts | 318° |
| 2026-05-04 02:18 | 40.69841 | -74.17344 | 21 ft | 12 kts | 306° |
| 2026-05-04 02:18 | 40.69881 | -74.17442 | 21 ft | 12 kts | 289° |
| 2026-05-04 02:18 | 40.69899 | -74.17529 | 21 ft | 7 kts | 280° |
| 2026-05-04 02:18 | 40.69906 | -74.17596 | 21 ft | 6 kts | 279° |
| 2026-05-04 02:19 | 40.69918 | -74.17628 | 21 ft | 2 kts | 307° |
| 2026-05-04 02:19 | 40.69929 | -74.17648 | 21 ft | 2 kts | 309° |
| 2026-05-04 02:19 | 40.69939 | -74.17668 | 21 ft | 1 kts | 288° |
| 2026-05-04 02:19 | 40.69941 | -74.17684 | 21 ft | 1 kts | 267° |
| 2026-05-04 02:20 | 40.69938 | -74.17695 | 21 ft | 1 kts | 251° |
| 2026-05-04 02:20 | 40.69933 | -74.17713 | 21 ft | 3 kts | 249° |
| 2026-05-04 02:20 | 40.69926 | -74.17738 | 21 ft | 4 kts | 247° |
| 2026-05-04 02:20 | 40.69916 | -74.17764 | 21 ft | 0 kts | 244° |
| 2026-05-04 02:21 | 40.69914 | -74.17770 | 21 ft | 0 kts | 244° |
| 2026-05-04 02:21 | 40.69913 | -74.17773 | 21 ft | 0 kts | 244° |